createdAt,value
2023-04-18T00:00:44.601Z,10.00
2023-04-18T00:03:15.844Z,10.23
2023-04-18T00:05:47.973Z,10.88
2023-04-18T00:08:15.373Z,12.23
2023-04-18T00:10:42.547Z,10.43
2023-04-18T00:13:12.016Z,9.63
2023-04-18T00:15:39.521Z,10.40
2023-04-18T00:18:08.155Z,10.02
2023-04-18T00:20:38.770Z,10.40
2023-04-18T00:23:06.202Z,9.60
2023-04-18T00:25:33.399Z,10.40
2023-04-18T00:28:00.567Z,9.32
2023-04-18T00:30:28.104Z,10.98
2023-04-18T00:32:55.299Z,10.45
2023-04-18T00:35:22.636Z,9.77
2023-04-18T00:37:49.904Z,10.52
2023-04-18T00:40:17.201Z,10.35
2023-04-18T00:42:44.503Z,10.38
2023-04-18T00:45:11.868Z,10.38
2023-04-18T00:47:39.060Z,10.57
2023-04-18T00:50:06.655Z,9.95
2023-04-18T00:52:35.796Z,10.52
2023-04-18T00:55:04.747Z,10.32
2023-04-18T00:57:31.948Z,10.32
2023-04-18T01:00:00.476Z,10.35
2023-04-18T01:02:30.495Z,9.23
2023-04-18T01:05:00.788Z,9.60
2023-04-18T01:07:28.238Z,10.27
2023-04-18T01:09:57.439Z,9.20
2023-04-18T01:12:24.570Z,9.90
2023-04-18T01:14:53.511Z,8.50
2023-04-18T01:17:22.365Z,9.90
2023-04-18T01:19:51.710Z,9.10
2023-04-18T01:22:20.430Z,10.48
2023-04-18T01:24:47.606Z,8.48
2023-04-18T01:27:17.521Z,9.57
2023-04-18T01:29:44.858Z,9.05
2023-04-18T01:32:12.122Z,11.02
2023-04-18T01:34:39.234Z,9.52
2023-04-18T01:37:06.596Z,9.25
2023-04-18T01:39:33.728Z,9.75
2023-04-18T01:42:01.908Z,8.88
2023-04-18T01:44:29.112Z,9.18
2023-04-18T01:46:56.382Z,8.77
2023-04-18T01:49:23.842Z,9.38
2023-04-18T01:51:51.073Z,8.98
2023-04-18T01:54:18.352Z,9.93
2023-04-18T01:56:45.691Z,9.73
2023-04-18T01:59:12.919Z,8.52
2023-04-18T02:01:40.329Z,9.75
2023-04-18T02:04:07.585Z,8.27
2023-04-18T02:06:35.055Z,9.25
2023-04-18T02:09:02.254Z,8.68
2023-04-18T02:11:30.434Z,9.15
2023-04-18T02:13:59.458Z,10.52
2023-04-18T02:16:26.689Z,9.48
2023-04-18T02:18:53.872Z,8.52
2023-04-18T02:21:21.793Z,9.88
2023-04-18T02:23:49.577Z,9.40
2023-04-18T02:26:16.794Z,9.95
2023-04-18T02:28:44.037Z,8.80
2023-04-18T02:31:14.786Z,8.75
2023-04-18T02:33:45.073Z,8.18
2023-04-18T02:36:15.500Z,7.72
2023-04-18T02:38:43.199Z,6.97
2023-04-18T02:41:14.936Z,8.45
2023-04-18T02:43:42.442Z,8.05
2023-04-18T02:46:09.816Z,7.55
2023-04-18T02:48:37.102Z,8.32
2023-04-18T02:51:07.513Z,7.60
2023-04-18T02:53:36.910Z,7.88
2023-04-18T02:56:04.277Z,7.68
2023-04-18T02:58:51.483Z,8.00
2023-04-18T03:01:44.968Z,6.97
2023-04-18T03:04:15.845Z,7.15
2023-04-18T03:06:45.896Z,7.22
2023-04-18T03:09:13.194Z,7.97
2023-04-18T03:11:46.512Z,7.65
2023-04-18T03:14:15.019Z,8.13
2023-04-18T03:16:53.096Z,7.78
2023-04-18T03:19:25.653Z,7.25
2023-04-18T03:21:55.039Z,7.25
2023-04-18T03:24:23.106Z,7.82
2023-04-18T03:26:54.978Z,7.85
2023-04-18T03:29:25.946Z,6.97
2023-04-18T03:31:53.230Z,7.20
2023-04-18T03:34:20.689Z,7.10
2023-04-18T03:36:48.286Z,7.70
2023-04-18T03:39:15.826Z,7.82
2023-04-18T03:41:43.305Z,6.38
2023-04-18T03:44:11.285Z,8.07
2023-04-18T03:46:41.161Z,8.25
2023-04-18T03:49:09.888Z,5.78
2023-04-18T03:51:47.533Z,6.82
2023-04-18T03:54:15.221Z,7.25
2023-04-18T03:56:42.657Z,6.60
2023-04-18T03:59:10.756Z,6.35
2023-04-18T04:01:40.395Z,6.85
2023-04-18T04:04:09.204Z,6.75
2023-04-18T04:06:36.725Z,5.68
2023-04-18T04:09:04.145Z,7.45
2023-04-18T04:11:31.288Z,6.40
2023-04-18T04:13:58.654Z,6.35
2023-04-18T04:16:31.580Z,4.93
2023-04-18T04:18:59.757Z,6.45
2023-04-18T04:21:33.446Z,5.32
2023-04-18T04:24:01.370Z,5.65
2023-04-18T04:26:37.474Z,6.57
2023-04-18T04:29:13.695Z,6.15
2023-04-18T04:31:42.781Z,6.47
2023-04-18T04:34:09.938Z,5.50
2023-04-18T04:36:37.945Z,5.40
2023-04-18T04:39:08.491Z,6.30
2023-04-18T04:41:53.358Z,5.07
2023-04-18T04:44:22.216Z,6.30
2023-04-18T04:46:49.745Z,5.53
2023-04-18T04:49:22.047Z,5.68
2023-04-18T04:51:49.544Z,6.00
2023-04-18T04:54:17.009Z,5.60
2023-04-18T04:56:44.229Z,6.18
2023-04-18T04:59:11.672Z,6.30
2023-04-18T05:01:41.844Z,5.28
2023-04-18T05:04:09.159Z,5.65
2023-04-18T05:06:38.374Z,5.07
2023-04-18T05:09:06.793Z,6.70
2023-04-18T05:11:33.972Z,5.78
2023-04-18T05:14:01.103Z,4.80
2023-04-18T05:16:28.259Z,5.68
2023-04-18T05:18:55.594Z,4.72
2023-04-18T05:21:24.558Z,5.32
2023-04-18T05:23:51.780Z,4.82
2023-04-18T05:26:19.020Z,7.93
2023-04-18T05:28:46.163Z,5.70
2023-04-18T05:31:13.366Z,5.43
2023-04-18T05:33:40.616Z,5.43
2023-04-18T05:36:08.004Z,5.32
2023-04-18T05:38:35.261Z,5.20
2023-04-18T05:41:03.001Z,6.50
2023-04-18T05:43:30.226Z,5.93
2023-04-18T05:45:58.010Z,4.70
2023-04-18T05:48:25.358Z,4.85
2023-04-18T05:50:52.540Z,5.55
2023-04-18T05:53:20.481Z,4.65
2023-04-18T05:55:48.824Z,6.22
2023-04-18T05:58:16.035Z,6.20
2023-04-18T06:00:43.482Z,11.85
2023-04-18T06:03:11.348Z,9.43
2023-04-18T06:05:40.856Z,6.50
2023-04-18T06:08:08.199Z,11.85
2023-04-18T06:10:37.764Z,4.75
2023-04-18T06:13:06.195Z,7.55
2023-04-18T06:15:33.485Z,5.72
2023-04-18T06:18:00.765Z,6.30
2023-04-18T06:20:28.103Z,7.32
2023-04-18T06:22:55.236Z,7.70
2023-04-18T06:25:22.375Z,4.28
2023-04-18T06:27:49.653Z,6.38
2023-04-18T06:30:16.983Z,4.50
2023-04-18T06:32:44.197Z,10.32
2023-04-18T06:35:11.483Z,6.13
2023-04-18T06:37:38.827Z,4.03
2023-04-18T06:40:06.286Z,4.60
2023-04-18T06:42:33.469Z,3.90
2023-04-18T06:45:00.592Z,4.00
2023-04-18T06:47:27.960Z,4.28
2023-04-18T06:49:55.232Z,12.55
2023-04-18T06:52:22.568Z,4.63
2023-04-18T06:54:49.717Z,2.85
2023-04-18T06:57:16.953Z,4.70
2023-04-18T06:59:44.095Z,4.15
2023-04-18T07:02:11.670Z,4.30
2023-04-18T07:04:39.007Z,4.88
2023-04-18T07:07:06.502Z,4.13
2023-04-18T07:09:33.748Z,4.60
2023-04-18T07:12:01.294Z,6.35
2023-04-18T07:14:28.598Z,4.82
2023-04-18T07:16:57.516Z,4.30
2023-04-18T07:19:24.710Z,4.07
2023-04-18T07:21:51.998Z,5.70
2023-04-18T07:24:19.499Z,10.05
2023-04-18T07:26:46.767Z,5.93
2023-04-18T07:29:14.009Z,5.78
2023-04-18T07:31:41.389Z,5.90
2023-04-18T07:34:09.072Z,4.72
2023-04-18T07:36:37.065Z,7.68
2023-04-18T07:39:04.259Z,4.63
2023-04-18T07:41:31.711Z,4.22
2023-04-18T07:43:59.034Z,4.13
2023-04-18T07:46:26.519Z,5.00
2023-04-18T07:48:53.694Z,5.13
2023-04-18T07:51:21.181Z,5.00
2023-04-18T07:53:48.364Z,3.63
2023-04-18T07:56:15.629Z,5.00
2023-04-18T07:58:43.738Z,7.20
2023-04-18T08:01:14.020Z,4.43
2023-04-18T08:03:41.766Z,6.00
2023-04-18T08:06:09.698Z,5.90
2023-04-18T08:08:36.947Z,6.03
2023-04-18T08:11:04.166Z,8.93
2023-04-18T08:13:31.426Z,4.68
2023-04-18T08:15:59.699Z,5.20
2023-04-18T08:18:27.198Z,5.40
2023-04-18T08:20:54.369Z,7.38
2023-04-18T08:23:21.520Z,5.93
2023-04-18T08:25:48.638Z,7.75
2023-04-18T08:28:15.862Z,14.77
2023-04-18T08:30:43.983Z,5.10
2023-04-18T08:33:11.212Z,4.47
2023-04-18T08:35:38.404Z,5.25
2023-04-18T08:38:05.710Z,4.93
2023-04-18T08:40:32.898Z,5.20
2023-04-18T08:43:04.861Z,4.97
2023-04-18T08:45:33.139Z,6.15
2023-04-18T08:48:01.602Z,5.85
2023-04-18T08:50:28.878Z,5.43
2023-04-18T08:52:56.378Z,5.22
2023-04-18T08:55:23.586Z,6.28
2023-04-18T08:57:54.030Z,6.03
2023-04-18T09:00:22.745Z,5.90
2023-04-18T09:02:55.022Z,5.40
2023-04-18T09:05:23.235Z,5.55
2023-04-18T09:07:51.422Z,6.38
2023-04-18T09:10:32.540Z,7.13
2023-04-18T09:13:00.900Z,6.72
2023-04-18T09:15:29.148Z,6.60
2023-04-18T09:18:02.655Z,6.13
2023-04-18T09:20:34.980Z,5.80
2023-04-18T09:23:04.246Z,7.18
2023-04-18T09:25:43.220Z,6.55
2023-04-18T09:28:26.940Z,6.93
2023-04-18T09:30:54.534Z,6.45
2023-04-18T09:33:29.280Z,7.63
2023-04-18T09:35:57.425Z,7.63
2023-04-18T09:38:41.121Z,8.25
2023-04-18T09:43:36.190Z,7.35
2023-04-18T09:46:05.010Z,7.45
2023-04-18T09:48:32.109Z,8.05
2023-04-18T09:51:08.865Z,7.63
2023-04-18T09:53:39.840Z,7.07
2023-04-18T09:56:12.796Z,7.82
2023-04-18T09:58:41.515Z,8.95
2023-04-18T10:01:08.822Z,7.65
2023-04-18T10:03:42.223Z,7.07
2023-04-18T10:06:10.179Z,7.50
2023-04-18T10:08:38.105Z,6.50
2023-04-18T10:11:05.379Z,6.00
2023-04-18T10:13:33.709Z,7.50
2023-04-18T10:16:01.148Z,7.90
2023-04-18T10:18:28.451Z,5.53
2023-04-18T10:21:03.205Z,5.05
2023-04-18T10:23:36.362Z,5.03
2023-04-18T10:26:04.708Z,5.30
2023-04-18T10:28:53.146Z,4.65
2023-04-18T10:31:28.337Z,5.30
2023-04-18T10:36:28.138Z,5.43
2023-04-18T10:39:03.014Z,5.93
2023-04-18T10:41:31.725Z,4.80
2023-04-18T10:44:08.900Z,5.35
2023-04-18T10:46:38.953Z,5.57
2023-04-18T10:49:16.423Z,7.13
2023-04-18T10:51:45.105Z,5.97
2023-04-18T10:54:14.161Z,6.82
2023-04-18T10:56:51.793Z,5.63
2023-04-18T10:59:19.419Z,5.80
2023-04-18T11:01:46.984Z,6.95
2023-04-18T11:04:14.844Z,5.70
2023-04-18T11:06:54.820Z,8.52
2023-04-18T11:09:22.536Z,7.28
2023-04-18T11:12:05.068Z,6.78
2023-04-18T11:14:45.883Z,7.18
2023-04-18T11:17:20.118Z,6.68
2023-04-18T11:19:47.671Z,6.93
2023-04-18T11:22:15.254Z,7.18
2023-04-18T11:24:42.511Z,6.38
2023-04-18T11:27:10.910Z,7.47
2023-04-18T11:29:38.548Z,6.50
2023-04-18T11:32:09.642Z,4.97
2023-04-18T11:34:36.914Z,6.40
2023-04-18T11:37:07.441Z,6.15
2023-04-18T11:39:36.273Z,6.35
2023-04-18T11:42:04.254Z,6.05
2023-04-18T11:44:32.128Z,5.20
2023-04-18T11:47:00.843Z,5.60
2023-04-18T11:49:29.311Z,5.63
2023-04-18T11:51:57.076Z,5.95
2023-04-18T11:54:40.599Z,5.15
2023-04-18T11:57:19.124Z,5.30
2023-04-18T11:59:59.575Z,4.93
2023-04-18T12:02:27.926Z,4.57
2023-04-18T12:04:56.885Z,4.78
2023-04-18T12:07:38.151Z,5.35
2023-04-18T12:10:06.307Z,4.43
2023-04-18T12:12:33.858Z,4.60
2023-04-18T12:15:02.081Z,4.57
2023-04-18T12:17:29.975Z,4.22
2023-04-18T12:19:57.638Z,3.60
2023-04-18T12:22:57.729Z,4.13
2023-04-18T12:25:27.753Z,5.45
2023-04-18T12:27:59.154Z,4.00
2023-04-18T12:30:30.912Z,3.47
2023-04-18T12:32:59.301Z,3.60
2023-04-18T12:35:26.565Z,4.07
2023-04-18T12:37:56.036Z,4.13
2023-04-18T12:40:24.462Z,3.85
2023-04-18T12:42:51.892Z,3.63
2023-04-18T12:45:19.852Z,4.53
2023-04-18T12:47:47.752Z,4.80
2023-04-18T12:50:18.872Z,4.93
2023-04-18T12:52:46.408Z,3.17
2023-04-18T12:55:13.941Z,4.88
2023-04-18T12:57:42.477Z,5.30
2023-04-18T13:00:10.770Z,4.85
2023-04-18T13:02:38.962Z,4.80
2023-04-18T13:05:07.469Z,4.78
2023-04-18T13:07:34.839Z,5.05
2023-04-18T13:10:02.109Z,5.03
2023-04-18T13:12:31.428Z,5.47
2023-04-18T13:14:58.610Z,5.55
2023-04-18T13:17:26.462Z,5.35
2023-04-18T13:19:53.611Z,5.38
2023-04-18T13:22:21.208Z,5.22
2023-04-18T13:24:48.492Z,5.82
2023-04-18T13:27:15.905Z,6.47
2023-04-18T13:29:45.536Z,5.35
2023-04-18T13:32:13.197Z,5.88
2023-04-18T13:34:44.392Z,5.53
2023-04-18T13:37:11.860Z,6.47
2023-04-18T13:39:39.077Z,5.93
2023-04-18T13:42:07.509Z,5.18
2023-04-18T13:44:38.086Z,5.85
2023-04-18T13:47:06.684Z,5.63
2023-04-18T13:49:34.578Z,5.35
2023-04-18T13:52:02.028Z,4.38
2023-04-18T13:54:31.230Z,6.32
2023-04-18T13:56:59.785Z,5.78
2023-04-18T13:59:27.316Z,6.00
2023-04-18T14:01:56.024Z,5.78
2023-04-18T14:04:24.213Z,5.60
2023-04-18T14:06:51.963Z,5.72
2023-04-18T14:09:19.268Z,6.70
2023-04-18T14:11:47.401Z,6.03
2023-04-18T14:14:15.028Z,5.65
2023-04-18T14:16:42.314Z,6.15
2023-04-18T14:19:09.617Z,5.60
2023-04-18T14:21:36.936Z,5.90
2023-04-18T14:24:04.274Z,6.47
2023-04-18T14:26:31.573Z,6.18
2023-04-18T14:28:58.771Z,7.05
2023-04-18T14:31:27.949Z,6.60
2023-04-18T14:33:55.204Z,7.55
2023-04-18T14:36:22.515Z,7.15
2023-04-18T14:38:50.210Z,5.97
2023-04-18T14:41:17.623Z,6.63
2023-04-18T14:43:44.780Z,6.53
2023-04-18T14:46:18.099Z,6.93
2023-04-18T14:48:48.613Z,6.97
2023-04-18T14:51:16.644Z,5.72
2023-04-18T14:53:44.353Z,5.78
2023-04-18T14:56:11.548Z,6.32
2023-04-18T14:58:38.790Z,7.70
2023-04-18T15:01:06.235Z,6.63
2023-04-18T15:03:34.015Z,7.03
2023-04-18T15:06:01.462Z,7.78
2023-04-18T15:08:30.720Z,5.90
2023-04-18T15:10:59.265Z,7.57
2023-04-18T15:13:26.520Z,7.63
2023-04-18T15:15:54.093Z,6.93
2023-04-18T15:18:21.309Z,7.05
2023-04-18T15:20:48.569Z,6.00
2023-04-18T15:23:16.247Z,6.45
2023-04-18T15:25:44.983Z,6.65
2023-04-18T15:28:13.624Z,6.82
2023-04-18T15:30:40.882Z,7.07
2023-04-18T15:33:08.329Z,8.45
2023-04-18T15:35:36.098Z,8.02
2023-04-18T15:38:03.584Z,8.35
2023-04-18T15:40:32.842Z,7.43
2023-04-18T15:43:00.140Z,6.80
2023-04-18T15:45:27.279Z,7.07
2023-04-18T15:47:54.595Z,7.65
2023-04-18T15:50:22.128Z,7.75
2023-04-18T15:52:49.368Z,7.82
2023-04-18T15:55:16.589Z,7.20
2023-04-18T15:57:43.840Z,7.63
2023-04-18T16:00:16.065Z,7.40
2023-04-18T16:02:47.129Z,7.72
2023-04-18T16:05:15.077Z,8.05
2023-04-18T16:07:42.778Z,7.63
2023-04-18T16:10:10.679Z,7.90
2023-04-18T16:12:38.479Z,8.00
2023-04-18T16:15:06.716Z,8.02
2023-04-18T16:17:35.280Z,8.57
2023-04-18T16:20:02.672Z,7.15
2023-04-18T16:22:29.890Z,8.40
2023-04-18T16:24:57.085Z,8.30
2023-04-18T16:27:24.372Z,8.68
2023-04-18T16:29:53.667Z,6.65
2023-04-18T16:32:21.304Z,7.35
2023-04-18T16:34:48.825Z,7.32
2023-04-18T16:37:16.214Z,7.70
2023-04-18T16:39:43.560Z,8.13
2023-04-18T16:42:11.332Z,7.90
2023-04-18T16:44:39.776Z,7.57
2023-04-18T16:47:08.164Z,7.90
2023-04-18T16:49:35.679Z,9.10
2023-04-18T16:52:03.003Z,7.57
2023-04-18T16:54:30.538Z,7.75
2023-04-18T16:56:57.811Z,8.30
2023-04-18T16:59:25.116Z,8.10
2023-04-18T17:01:52.299Z,7.63
2023-04-18T17:04:19.616Z,7.85
2023-04-18T17:06:46.992Z,7.75
2023-04-18T17:09:14.778Z,6.90
2023-04-18T17:11:42.344Z,8.32
2023-04-18T17:14:09.718Z,8.80
2023-04-18T17:16:40.924Z,8.05
2023-04-18T17:19:08.747Z,7.72
2023-04-18T17:21:36.491Z,7.93
2023-04-18T17:24:05.749Z,8.65
2023-04-18T17:26:39.737Z,8.35
2023-04-18T17:29:07.165Z,7.95
2023-04-18T17:31:34.646Z,8.10
2023-04-18T17:34:03.463Z,7.95
2023-04-18T17:36:30.795Z,9.15
2023-04-18T17:39:05.257Z,7.90
2023-04-18T17:41:36.145Z,7.43
2023-04-18T17:44:15.971Z,8.57
2023-04-18T17:46:44.539Z,7.85
2023-04-18T17:49:12.109Z,8.40
2023-04-18T17:51:39.483Z,7.93
2023-04-18T17:54:07.986Z,7.75
2023-04-18T17:56:35.356Z,8.18
2023-04-18T17:59:02.966Z,7.90
2023-04-18T18:01:30.542Z,8.52
2023-04-18T18:04:04.510Z,7.60
2023-04-18T18:06:44.748Z,7.50
2023-04-18T18:09:14.787Z,8.52
2023-04-18T18:11:42.210Z,7.63
2023-04-18T18:14:09.569Z,7.25
2023-04-18T18:16:39.279Z,7.53
2023-04-18T18:19:09.528Z,8.85
2023-04-18T18:21:36.744Z,7.85
2023-04-18T18:24:04.137Z,7.15
2023-04-18T18:26:31.406Z,7.47
2023-04-18T18:28:58.688Z,7.35
2023-04-18T18:31:25.935Z,7.47
2023-04-18T18:33:53.305Z,7.93
2023-04-18T18:36:20.780Z,7.20
2023-04-18T18:38:48.245Z,7.93
2023-04-18T18:41:15.758Z,8.25
2023-04-18T18:43:43.022Z,8.65
2023-04-18T18:46:10.214Z,8.23
2023-04-18T18:48:38.991Z,8.20
2023-04-18T18:51:06.342Z,7.75
2023-04-18T18:53:33.658Z,7.60
2023-04-18T18:56:01.155Z,7.95
2023-04-18T18:58:28.580Z,8.30
2023-04-18T19:00:56.116Z,7.68
2023-04-18T19:03:23.485Z,7.60
2023-04-18T19:05:50.751Z,8.30
2023-04-18T19:08:18.045Z,7.53
2023-04-18T19:10:45.383Z,7.45
2023-04-18T19:13:12.643Z,7.85
2023-04-18T19:15:39.959Z,8.38
2023-04-18T19:18:07.172Z,7.45
2023-04-18T19:20:34.782Z,6.95
2023-04-18T19:23:02.030Z,7.40
2023-04-18T19:25:29.197Z,7.43
2023-04-18T19:27:56.458Z,7.93
2023-04-18T19:30:24.902Z,8.13
2023-04-18T19:32:52.160Z,7.15
2023-04-18T19:35:19.463Z,8.65
2023-04-18T19:37:46.889Z,7.95
2023-04-18T19:40:14.353Z,8.40
2023-04-18T19:42:41.580Z,8.80
2023-04-18T19:45:09.100Z,7.43
2023-04-18T19:47:36.753Z,7.45
2023-04-18T19:50:04.190Z,6.93
2023-04-18T19:52:31.405Z,8.35
2023-04-18T19:54:58.613Z,8.15
2023-04-18T19:57:26.338Z,9.25
2023-04-18T19:59:53.564Z,8.43
2023-04-18T20:02:20.949Z,8.50
2023-04-18T20:04:48.269Z,7.75
2023-04-18T20:07:15.801Z,8.68
2023-04-18T20:09:43.067Z,7.35
2023-04-18T20:12:10.467Z,7.50
2023-04-18T20:14:37.781Z,8.02
2023-04-18T20:17:05.257Z,7.15
2023-04-18T20:19:32.510Z,10.75
2023-04-18T20:21:59.669Z,9.82
2023-04-18T20:24:28.128Z,7.75
2023-04-18T20:26:55.456Z,7.50
2023-04-18T20:29:22.654Z,6.82
2023-04-18T20:31:50.357Z,7.57
2023-04-18T20:34:17.636Z,7.70
2023-04-18T20:36:46.439Z,8.60
2023-04-18T20:39:14.508Z,8.02
2023-04-18T20:41:48.441Z,8.23
2023-04-18T20:44:16.700Z,8.18
2023-04-18T20:46:43.994Z,7.05
2023-04-18T20:49:11.412Z,8.15
2023-04-18T20:51:38.636Z,7.93
2023-04-18T20:54:05.885Z,8.35
2023-04-18T20:56:33.705Z,7.97
2023-04-18T20:59:01.136Z,8.38
2023-04-18T21:01:28.456Z,7.00
2023-04-18T21:03:55.941Z,8.60
2023-04-18T21:06:23.232Z,8.07
2023-04-18T21:08:50.667Z,8.60
2023-04-18T21:11:17.938Z,8.10
2023-04-18T21:13:45.248Z,8.18
2023-04-18T21:16:12.590Z,8.27
2023-04-18T21:18:39.850Z,7.22
2023-04-18T21:21:07.786Z,7.72
2023-04-18T21:23:41.344Z,7.43
2023-04-18T21:28:52.172Z,7.95
2023-04-18T21:31:19.397Z,6.28
2023-04-18T21:33:46.626Z,8.32
2023-04-18T21:36:13.901Z,6.78
2023-04-18T21:38:41.089Z,7.97
2023-04-18T21:41:08.343Z,7.80
2023-04-18T21:43:35.571Z,7.47
2023-04-18T21:46:03.006Z,7.75
2023-04-18T21:48:30.327Z,7.80
2023-04-18T21:50:57.580Z,7.38
2023-04-18T21:53:24.774Z,7.40
2023-04-18T21:55:52.082Z,7.75
2023-04-18T21:58:19.564Z,7.35
2023-04-18T22:00:46.897Z,8.25
2023-04-18T22:03:14.406Z,7.30
2023-04-18T22:05:42.833Z,6.68
2023-04-18T22:08:10.173Z,7.38
2023-04-18T22:10:38.205Z,6.40
2023-04-18T22:13:05.572Z,8.02
2023-04-18T22:15:33.430Z,7.20
2023-04-18T22:18:01.093Z,7.07
2023-04-18T22:20:28.437Z,7.30
2023-04-18T22:22:55.708Z,6.32
2023-04-18T22:25:23.046Z,6.30
2023-04-18T22:27:50.383Z,7.40
2023-04-18T22:30:17.770Z,6.57
2023-04-18T22:32:45.020Z,7.40
2023-04-18T22:35:12.274Z,7.18
2023-04-18T22:37:39.582Z,6.90
2023-04-18T22:40:07.157Z,6.57
2023-04-18T22:42:35.594Z,7.07
2023-04-18T22:45:03.986Z,6.88
2023-04-18T22:47:31.352Z,6.18
2023-04-18T22:49:58.637Z,6.40
2023-04-18T22:52:26.159Z,5.45
2023-04-18T22:54:53.420Z,6.45
2023-04-18T22:57:20.898Z,6.60
2023-04-18T22:59:48.083Z,6.70
2023-04-18T23:02:15.342Z,7.75
2023-04-18T23:04:45.397Z,6.95
2023-04-18T23:07:12.707Z,8.02
2023-04-18T23:09:39.958Z,7.88
2023-04-18T23:12:07.189Z,6.72
2023-04-18T23:14:34.585Z,6.82
2023-04-18T23:17:01.940Z,7.25
2023-04-18T23:19:29.072Z,7.20
2023-04-18T23:21:56.259Z,8.00
2023-04-18T23:24:23.460Z,7.03
2023-04-18T23:26:50.693Z,7.53
2023-04-18T23:29:17.837Z,6.53
2023-04-18T23:31:45.205Z,7.07
2023-04-18T23:34:12.636Z,6.85
2023-04-18T23:36:40.450Z,7.53
2023-04-18T23:39:08.563Z,6.00
2023-04-18T23:41:35.793Z,7.20
2023-04-18T23:44:04.098Z,7.32
2023-04-18T23:46:31.395Z,6.50
2023-04-18T23:48:58.595Z,7.30
2023-04-18T23:51:26.755Z,6.78
2023-04-18T23:53:54.087Z,6.90
2023-04-18T23:56:23.049Z,6.68
2023-04-18T23:58:50.908Z,6.82
